Terminal Aerodrome Forecast
Issued by NWS

Home | Current Version | Previous Version | Text Only | Print | Product List | Glossary On
Versions: 1 2 3 4 5 6 7 8 9 10 11 12 13
000
FTUS42 KTBW 201732
TAFRSW
TAF
KRSW 201732Z 2018/2118 28010KT P6SM SCT040
     FM202300 33010KT P6SM FEW040 SCT250
     FM210200 03010KT P6SM FEW015 SCT030
     FM211400 10010KT P6SM SCT050=

USA.gov is the U.S. government's official web portal to all federal, state and local government web resources and services.